sensor_id;sensor_type;location;lat;lon;timestamp;P1;durP1;ratioP1;P2;durP2;ratioP2
7412;SDS011;3748;48.136;11.538;2022-12-18T00:01:30;40.03;;;20.17;;
7412;SDS011;3748;48.136;11.538;2022-12-18T00:04:03;43.27;;;18.40;;
7412;SDS011;3748;48.136;11.538;2022-12-18T00:06:31;47.63;;;17.87;;
7412;SDS011;3748;48.136;11.538;2022-12-18T00:08:59;45.07;;;17.50;;
7412;SDS011;3748;48.136;11.538;2022-12-18T00:11:28;49.47;;;17.13;;
7412;SDS011;3748;48.136;11.538;2022-12-18T00:13:57;35.73;;;16.77;;
7412;SDS011;3748;48.136;11.538;2022-12-18T00:16:25;39.60;;;16.10;;
7412;SDS011;3748;48.136;11.538;2022-12-18T00:18:56;51.37;;;17.27;;
7412;SDS011;3748;48.136;11.538;2022-12-18T00:21:25;39.60;;;17.47;;
7412;SDS011;3748;48.136;11.538;2022-12-18T00:23:52;38.73;;;16.80;;
7412;SDS011;3748;48.136;11.538;2022-12-18T00:26:19;36.97;;;16.63;;
7412;SDS011;3748;48.136;11.538;2022-12-18T00:28:51;32.40;;;16.40;;
7412;SDS011;3748;48.136;11.538;2022-12-18T00:31:18;38.23;;;18.33;;
7412;SDS011;3748;48.136;11.538;2022-12-18T00:33:47;42.67;;;18.53;;
7412;SDS011;3748;48.136;11.538;2022-12-18T00:36:15;46.77;;;18.63;;
7412;SDS011;3748;48.136;11.538;2022-12-18T00:38:47;40.73;;;20.63;;
7412;SDS011;3748;48.136;11.538;2022-12-18T00:41:15;45.80;;;22.30;;
7412;SDS011;3748;48.136;11.538;2022-12-18T00:44:04;45.07;;;18.20;;
7412;SDS011;3748;48.136;11.538;2022-12-18T00:46:31;58.00;;;22.17;;
7412;SDS011;3748;48.136;11.538;2022-12-18T00:48:58;57.83;;;22.90;;
7412;SDS011;3748;48.136;11.538;2022-12-18T00:51:26;49.93;;;23.30;;
7412;SDS011;3748;48.136;11.538;2022-12-18T00:53:56;40.43;;;19.07;;
7412;SDS011;3748;48.136;11.538;2022-12-18T00:56:23;49.33;;;21.57;;
7412;SDS011;3748;48.136;11.538;2022-12-18T00:58:50;36.87;;;17.20;;
7412;SDS011;3748;48.136;11.538;2022-12-18T01:01:17;36.87;;;16.67;;
7412;SDS011;3748;48.136;11.538;2022-12-18T01:03:47;43.87;;;20.03;;
7412;SDS011;3748;48.136;11.538;2022-12-18T01:06:14;42.23;;;18.17;;
7412;SDS011;3748;48.136;11.538;2022-12-18T01:08:42;48.57;;;19.30;;
7412;SDS011;3748;48.136;11.538;2022-12-18T01:11:15;50.00;;;21.00;;
7412;SDS011;3748;48.136;11.538;2022-12-18T01:13:47;46.27;;;19.63;;
7412;SDS011;3748;48.136;11.538;2022-12-18T01:16:18;38.93;;;18.77;;
7412;SDS011;3748;48.136;11.538;2022-12-18T01:18:45;53.97;;;18.53;;
7412;SDS011;3748;48.136;11.538;2022-12-18T01:21:12;38.50;;;15.70;;
7412;SDS011;3748;48.136;11.538;2022-12-18T01:23:41;39.40;;;17.90;;
7412;SDS011;3748;48.136;11.538;2022-12-18T01:26:16;40.97;;;18.80;;
7412;SDS011;3748;48.136;11.538;2022-12-18T01:28:43;41.33;;;19.27;;
7412;SDS011;3748;48.136;11.538;2022-12-18T01:31:11;42.40;;;18.60;;
7412;SDS011;3748;48.136;11.538;2022-12-18T01:33:40;47.43;;;18.57;;
7412;SDS011;3748;48.136;11.538;2022-12-18T01:36:07;43.67;;;17.87;;
7412;SDS011;3748;48.136;11.538;2022-12-18T01:38:35;35.87;;;16.03;;
7412;SDS011;3748;48.136;11.538;2022-12-18T01:41:02;39.50;;;16.03;;
7412;SDS011;3748;48.136;11.538;2022-12-18T01:43:44;36.80;;;16.00;;
7412;SDS011;3748;48.136;11.538;2022-12-18T01:46:13;45.03;;;17.37;;
7412;SDS011;3748;48.136;11.538;2022-12-18T01:48:41;44.33;;;18.40;;
7412;SDS011;3748;48.136;11.538;2022-12-18T01:51:09;44.90;;;19.50;;
7412;SDS011;3748;48.136;11.538;2022-12-18T01:53:37;34.53;;;15.73;;
7412;SDS011;3748;48.136;11.538;2022-12-18T01:56:06;44.83;;;17.60;;
7412;SDS011;3748;48.136;11.538;2022-12-18T01:58:35;41.17;;;15.73;;
7412;SDS011;3748;48.136;11.538;2022-12-18T02:01:09;33.97;;;12.97;;
7412;SDS011;3748;48.136;11.538;2022-12-18T02:03:36;36.83;;;15.50;;
7412;SDS011;3748;48.136;11.538;2022-12-18T02:06:06;38.50;;;18.13;;
7412;SDS011;3748;48.136;11.538;2022-12-18T02:08:40;39.57;;;19.50;;
7412;SDS011;3748;48.136;11.538;2022-12-18T02:11:17;34.80;;;16.47;;
7412;SDS011;3748;48.136;11.538;2022-12-18T02:13:52;45.90;;;17.67;;
7412;SDS011;3748;48.136;11.538;2022-12-18T02:16:43;47.40;;;17.53;;
7412;SDS011;3748;48.136;11.538;2022-12-18T02:19:19;30.97;;;15.60;;
7412;SDS011;3748;48.136;11.538;2022-12-18T02:22:03;28.73;;;14.73;;
7412;SDS011;3748;48.136;11.538;2022-12-18T02:24:40;41.33;;;18.77;;
7412;SDS011;3748;48.136;11.538;2022-12-18T02:27:23;45.33;;;17.10;;
7412;SDS011;3748;48.136;11.538;2022-12-18T02:29:51;36.67;;;16.87;;
7412;SDS011;3748;48.136;11.538;2022-12-18T02:32:21;30.90;;;12.23;;
7412;SDS011;3748;48.136;11.538;2022-12-18T02:34:53;43.27;;;15.50;;
7412;SDS011;3748;48.136;11.538;2022-12-18T02:37:23;36.03;;;15.13;;
7412;SDS011;3748;48.136;11.538;2022-12-18T02:39:52;47.93;;;18.97;;
7412;SDS011;3748;48.136;11.538;2022-12-18T02:42:24;42.23;;;18.13;;
7412;SDS011;3748;48.136;11.538;2022-12-18T02:44:55;46.27;;;18.43;;
7412;SDS011;3748;48.136;11.538;2022-12-18T02:47:24;54.47;;;18.23;;
7412;SDS011;3748;48.136;11.538;2022-12-18T02:49:57;56.87;;;22.00;;
7412;SDS011;3748;48.136;11.538;2022-12-18T02:52:29;40.97;;;17.77;;
7412;SDS011;3748;48.136;11.538;2022-12-18T02:55:05;46.63;;;19.23;;
7412;SDS011;3748;48.136;11.538;2022-12-18T02:57:42;55.03;;;20.20;;
7412;SDS011;3748;48.136;11.538;2022-12-18T03:00:13;52.33;;;20.43;;
7412;SDS011;3748;48.136;11.538;2022-12-18T03:02:44;44.27;;;19.73;;
7412;SDS011;3748;48.136;11.538;2022-12-18T03:05:16;57.27;;;21.43;;
7412;SDS011;3748;48.136;11.538;2022-12-18T03:07:49;41.07;;;17.13;;
7412;SDS011;3748;48.136;11.538;2022-12-18T03:10:27;41.23;;;17.93;;
7412;SDS011;3748;48.136;11.538;2022-12-18T03:12:58;42.30;;;19.13;;
7412;SDS011;3748;48.136;11.538;2022-12-18T03:15:29;48.23;;;17.97;;
7412;SDS011;3748;48.136;11.538;2022-12-18T03:18:01;42.37;;;16.33;;
7412;SDS011;3748;48.136;11.538;2022-12-18T03:20:31;42.40;;;16.97;;
7412;SDS011;3748;48.136;11.538;2022-12-18T03:23:04;36.53;;;12.97;;
7412;SDS011;3748;48.136;11.538;2022-12-18T03:25:35;53.97;;;18.60;;
7412;SDS011;3748;48.136;11.538;2022-12-18T03:28:07;43.40;;;17.47;;
7412;SDS011;3748;48.136;11.538;2022-12-18T03:30:38;38.47;;;17.50;;
7412;SDS011;3748;48.136;11.538;2022-12-18T03:33:09;40.30;;;19.43;;
7412;SDS011;3748;48.136;11.538;2022-12-18T03:35:40;52.00;;;19.03;;
7412;SDS011;3748;48.136;11.538;2022-12-18T03:38:08;49.77;;;19.47;;
7412;SDS011;3748;48.136;11.538;2022-12-18T03:40:40;42.87;;;14.53;;
7412;SDS011;3748;48.136;11.538;2022-12-18T03:43:17;31.73;;;13.63;;
7412;SDS011;3748;48.136;11.538;2022-12-18T03:46:02;42.53;;;18.50;;
7412;SDS011;3748;48.136;11.538;2022-12-18T03:48:35;48.07;;;19.83;;
7412;SDS011;3748;48.136;11.538;2022-12-18T03:51:07;42.47;;;19.87;;
7412;SDS011;3748;48.136;11.538;2022-12-18T03:53:41;37.67;;;17.07;;
7412;SDS011;3748;48.136;11.538;2022-12-18T03:56:14;50.37;;;19.80;;
7412;SDS011;3748;48.136;11.538;2022-12-18T05:52:05;36.33;;;14.37;;
7412;SDS011;3748;48.136;11.538;2022-12-18T05:54:32;42.97;;;16.63;;
7412;SDS011;3748;48.136;11.538;2022-12-18T05:56:59;35.60;;;17.30;;
7412;SDS011;3748;48.136;11.538;2022-12-18T05:59:26;35.23;;;16.37;;
7412;SDS011;3748;48.136;11.538;2022-12-18T06:01:53;41.80;;;16.43;;
7412;SDS011;3748;48.136;11.538;2022-12-18T06:04:19;37.87;;;14.90;;
7412;SDS011;3748;48.136;11.538;2022-12-18T06:06:46;41.67;;;17.67;;
7412;SDS011;3748;48.136;11.538;2022-12-18T06:09:15;28.40;;;12.97;;
7412;SDS011;3748;48.136;11.538;2022-12-18T06:11:42;32.50;;;15.53;;
7412;SDS011;3748;48.136;11.538;2022-12-18T06:14:18;28.13;;;12.87;;
7412;SDS011;3748;48.136;11.538;2022-12-18T06:16:45;28.97;;;14.37;;
7412;SDS011;3748;48.136;11.538;2022-12-18T06:19:14;36.60;;;16.83;;
7412;SDS011;3748;48.136;11.538;2022-12-18T06:21:42;35.97;;;15.33;;
7412;SDS011;3748;48.136;11.538;2022-12-18T06:24:09;34.27;;;14.63;;
7412;SDS011;3748;48.136;11.538;2022-12-18T06:26:39;40.47;;;16.67;;
7412;SDS011;3748;48.136;11.538;2022-12-18T06:29:06;40.87;;;16.00;;
7412;SDS011;3748;48.136;11.538;2022-12-18T06:31:33;36.50;;;15.00;;
7412;SDS011;3748;48.136;11.538;2022-12-18T06:34:01;37.13;;;15.40;;
7412;SDS011;3748;48.136;11.538;2022-12-18T06:36:33;44.93;;;17.83;;
7412;SDS011;3748;48.136;11.538;2022-12-18T06:39:00;38.93;;;16.53;;
7412;SDS011;3748;48.136;11.538;2022-12-18T06:41:27;38.60;;;18.37;;
7412;SDS011;3748;48.136;11.538;2022-12-18T06:43:55;37.30;;;15.60;;
7412;SDS011;3748;48.136;11.538;2022-12-18T06:46:23;29.20;;;16.07;;
7412;SDS011;3748;48.136;11.538;2022-12-18T06:48:52;41.20;;;16.20;;
7412;SDS011;3748;48.136;11.538;2022-12-18T06:51:19;30.50;;;14.10;;
7412;SDS011;3748;48.136;11.538;2022-12-18T06:53:47;34.80;;;14.43;;
7412;SDS011;3748;48.136;11.538;2022-12-18T06:56:14;40.77;;;17.37;;
7412;SDS011;3748;48.136;11.538;2022-12-18T06:58:41;30.13;;;14.87;;
7412;SDS011;3748;48.136;11.538;2022-12-18T07:01:10;34.23;;;15.23;;
7412;SDS011;3748;48.136;11.538;2022-12-18T07:03:46;32.97;;;15.67;;
7412;SDS011;3748;48.136;11.538;2022-12-18T07:06:21;33.67;;;16.83;;
7412;SDS011;3748;48.136;11.538;2022-12-18T07:08:49;24.00;;;13.30;;
7412;SDS011;3748;48.136;11.538;2022-12-18T07:11:18;31.93;;;15.97;;
7412;SDS011;3748;48.136;11.538;2022-12-18T07:13:45;35.03;;;15.67;;
7412;SDS011;3748;48.136;11.538;2022-12-18T07:16:14;32.93;;;16.03;;
7412;SDS011;3748;48.136;11.538;2022-12-18T07:18:45;35.63;;;13.93;;
7412;SDS011;3748;48.136;11.538;2022-12-18T07:21:13;29.17;;;12.33;;
7412;SDS011;3748;48.136;11.538;2022-12-18T07:23:42;27.30;;;13.33;;
7412;SDS011;3748;48.136;11.538;2022-12-18T07:26:10;33.10;;;14.07;;
7412;SDS011;3748;48.136;11.538;2022-12-18T07:28:39;34.27;;;15.67;;
7412;SDS011;3748;48.136;11.538;2022-12-18T07:31:09;45.67;;;17.20;;
7412;SDS011;3748;48.136;11.538;2022-12-18T07:33:45;16.17;;;9.73;;
7412;SDS011;3748;48.136;11.538;2022-12-18T07:36:12;30.80;;;12.57;;
7412;SDS011;3748;48.136;11.538;2022-12-18T07:38:40;26.13;;;12.50;;
7412;SDS011;3748;48.136;11.538;2022-12-18T07:41:07;34.67;;;14.53;;
7412;SDS011;3748;48.136;11.538;2022-12-18T07:43:35;32.33;;;13.97;;
7412;SDS011;3748;48.136;11.538;2022-12-18T07:46:03;34.53;;;14.07;;
7412;SDS011;3748;48.136;11.538;2022-12-18T07:48:38;31.17;;;14.43;;
7412;SDS011;3748;48.136;11.538;2022-12-18T07:51:07;33.73;;;15.33;;
7412;SDS011;3748;48.136;11.538;2022-12-18T07:53:35;33.93;;;14.30;;
7412;SDS011;3748;48.136;11.538;2022-12-18T07:56:03;34.87;;;16.80;;
7412;SDS011;3748;48.136;11.538;2022-12-18T07:58:34;44.57;;;15.17;;
7412;SDS011;3748;48.136;11.538;2022-12-18T08:01:02;33.83;;;15.87;;
7412;SDS011;3748;48.136;11.538;2022-12-18T08:03:30;43.70;;;15.33;;
7412;SDS011;3748;48.136;11.538;2022-12-18T08:05:58;38.53;;;16.47;;
7412;SDS011;3748;48.136;11.538;2022-12-18T08:08:28;33.23;;;13.17;;
7412;SDS011;3748;48.136;11.538;2022-12-18T08:10:56;28.37;;;15.83;;
7412;SDS011;3748;48.136;11.538;2022-12-18T08:13:24;34.97;;;15.57;;
7412;SDS011;3748;48.136;11.538;2022-12-18T08:15:57;28.10;;;14.77;;
7412;SDS011;3748;48.136;11.538;2022-12-18T08:18:26;30.63;;;16.00;;
7412;SDS011;3748;48.136;11.538;2022-12-18T08:20:53;32.47;;;13.77;;
7412;SDS011;3748;48.136;11.538;2022-12-18T08:23:21;35.50;;;14.07;;
7412;SDS011;3748;48.136;11.538;2022-12-18T08:25:49;28.87;;;13.77;;
7412;SDS011;3748;48.136;11.538;2022-12-18T08:28:17;38.90;;;13.67;;
7412;SDS011;3748;48.136;11.538;2022-12-18T08:30:44;27.93;;;12.37;;
7412;SDS011;3748;48.136;11.538;2022-12-18T08:33:11;29.57;;;14.70;;
7412;SDS011;3748;48.136;11.538;2022-12-18T08:35:38;31.77;;;13.43;;
7412;SDS011;3748;48.136;11.538;2022-12-18T08:38:05;33.30;;;15.73;;
7412;SDS011;3748;48.136;11.538;2022-12-18T08:40:33;30.83;;;14.57;;
7412;SDS011;3748;48.136;11.538;2022-12-18T08:43:01;31.33;;;15.03;;
7412;SDS011;3748;48.136;11.538;2022-12-18T08:46:00;31.30;;;13.93;;
7412;SDS011;3748;48.136;11.538;2022-12-18T08:48:27;39.10;;;13.57;;
7412;SDS011;3748;48.136;11.538;2022-12-18T08:50:55;33.13;;;13.17;;
7412;SDS011;3748;48.136;11.538;2022-12-18T08:53:22;32.43;;;12.90;;
7412;SDS011;3748;48.136;11.538;2022-12-18T08:55:49;35.97;;;15.37;;
7412;SDS011;3748;48.136;11.538;2022-12-18T08:58:18;30.67;;;13.33;;
7412;SDS011;3748;48.136;11.538;2022-12-18T09:00:54;35.50;;;16.80;;
7412;SDS011;3748;48.136;11.538;2022-12-18T09:11:12;29.53;;;14.13;;
7412;SDS011;3748;48.136;11.538;2022-12-18T09:13:47;30.90;;;12.87;;
7412;SDS011;3748;48.136;11.538;2022-12-18T09:21:39;26.20;;;11.80;;
7412;SDS011;3748;48.136;11.538;2022-12-18T10:00:44;27.60;;;13.40;;
7412;SDS011;3748;48.136;11.538;2022-12-18T10:03:12;30.30;;;14.33;;
7412;SDS011;3748;48.136;11.538;2022-12-18T10:05:42;22.17;;;11.13;;
7412;SDS011;3748;48.136;11.538;2022-12-18T10:08:17;25.47;;;12.87;;
7412;SDS011;3748;48.136;11.538;2022-12-18T10:10:51;26.43;;;12.43;;
7412;SDS011;3748;48.136;11.538;2022-12-18T10:13:21;30.63;;;13.47;;
7412;SDS011;3748;48.136;11.538;2022-12-18T10:15:58;24.80;;;11.43;;
7412;SDS011;3748;48.136;11.538;2022-12-18T10:18:50;22.67;;;11.53;;
7412;SDS011;3748;48.136;11.538;2022-12-18T10:21:46;31.47;;;15.13;;
7412;SDS011;3748;48.136;11.538;2022-12-18T10:24:18;21.50;;;12.10;;
7412;SDS011;3748;48.136;11.538;2022-12-18T10:26:55;28.93;;;13.77;;
7412;SDS011;3748;48.136;11.538;2022-12-18T10:29:33;32.87;;;13.63;;
7412;SDS011;3748;48.136;11.538;2022-12-18T10:32:02;26.20;;;12.80;;
7412;SDS011;3748;48.136;11.538;2022-12-18T10:34:35;28.47;;;13.70;;
7412;SDS011;3748;48.136;11.538;2022-12-18T10:37:13;32.87;;;13.80;;
7412;SDS011;3748;48.136;11.538;2022-12-18T10:39:45;25.50;;;12.53;;
7412;SDS011;3748;48.136;11.538;2022-12-18T10:42:45;31.77;;;13.77;;
7412;SDS011;3748;48.136;11.538;2022-12-18T10:45:25;24.80;;;13.03;;
7412;SDS011;3748;48.136;11.538;2022-12-18T10:48:16;29.87;;;14.60;;
7412;SDS011;3748;48.136;11.538;2022-12-18T10:51:02;25.27;;;14.73;;
7412;SDS011;3748;48.136;11.538;2022-12-18T10:53:34;24.50;;;12.67;;
7412;SDS011;3748;48.136;11.538;2022-12-18T10:56:19;24.30;;;11.77;;
7412;SDS011;3748;48.136;11.538;2022-12-18T10:59:08;26.43;;;13.43;;
7412;SDS011;3748;48.136;11.538;2022-12-18T11:01:45;28.17;;;13.47;;
7412;SDS011;3748;48.136;11.538;2022-12-18T11:04:19;26.67;;;13.73;;
7412;SDS011;3748;48.136;11.538;2022-12-18T11:06:55;29.83;;;13.60;;
7412;SDS011;3748;48.136;11.538;2022-12-18T11:09:24;28.83;;;14.20;;
7412;SDS011;3748;48.136;11.538;2022-12-18T11:11:52;28.87;;;12.60;;
7412;SDS011;3748;48.136;11.538;2022-12-18T11:14:21;33.37;;;13.50;;
7412;SDS011;3748;48.136;11.538;2022-12-18T11:16:50;22.43;;;12.57;;
7412;SDS011;3748;48.136;11.538;2022-12-18T11:19:21;24.60;;;12.70;;
7412;SDS011;3748;48.136;11.538;2022-12-18T11:21:58;22.03;;;12.00;;
7412;SDS011;3748;48.136;11.538;2022-12-18T11:24:34;31.63;;;14.10;;
7412;SDS011;3748;48.136;11.538;2022-12-18T11:27:02;30.30;;;13.27;;
7412;SDS011;3748;48.136;11.538;2022-12-18T11:29:33;25.90;;;14.77;;
7412;SDS011;3748;48.136;11.538;2022-12-18T11:32:21;31.00;;;14.03;;
7412;SDS011;3748;48.136;11.538;2022-12-18T11:35:08;25.40;;;13.37;;
7412;SDS011;3748;48.136;11.538;2022-12-18T11:37:46;25.50;;;12.10;;
7412;SDS011;3748;48.136;11.538;2022-12-18T11:40:20;31.90;;;13.47;;
7412;SDS011;3748;48.136;11.538;2022-12-18T11:42:53;27.03;;;12.20;;
7412;SDS011;3748;48.136;11.538;2022-12-18T11:45:28;27.67;;;13.03;;
7412;SDS011;3748;48.136;11.538;2022-12-18T11:47:58;23.10;;;12.70;;
7412;SDS011;3748;48.136;11.538;2022-12-18T11:50:42;18.17;;;11.23;;
7412;SDS011;3748;48.136;11.538;2022-12-18T11:53:28;23.50;;;11.27;;
7412;SDS011;3748;48.136;11.538;2022-12-18T11:56:01;27.40;;;12.97;;
7412;SDS011;3748;48.136;11.538;2022-12-18T11:58:43;25.83;;;13.63;;
7412;SDS011;3748;48.136;11.538;2022-12-18T12:01:15;22.90;;;12.63;;
7412;SDS011;3748;48.136;11.538;2022-12-18T12:03:55;23.07;;;11.73;;
7412;SDS011;3748;48.136;11.538;2022-12-18T12:06:40;25.80;;;12.33;;
7412;SDS011;3748;48.136;11.538;2022-12-18T12:09:16;24.43;;;10.93;;
7412;SDS011;3748;48.136;11.538;2022-12-18T12:11:50;25.90;;;12.97;;
7412;SDS011;3748;48.136;11.538;2022-12-18T12:14:37;24.23;;;11.97;;
7412;SDS011;3748;48.136;11.538;2022-12-18T12:17:29;26.37;;;13.87;;
7412;SDS011;3748;48.136;11.538;2022-12-18T12:20:05;23.07;;;9.90;;
7412;SDS011;3748;48.136;11.538;2022-12-18T12:22:43;20.80;;;11.43;;
7412;SDS011;3748;48.136;11.538;2022-12-18T12:25:30;21.50;;;11.77;;
7412;SDS011;3748;48.136;11.538;2022-12-18T12:28:13;27.90;;;11.97;;
7412;SDS011;3748;48.136;11.538;2022-12-18T12:30:53;30.10;;;13.30;;
7412;SDS011;3748;48.136;11.538;2022-12-18T12:33:30;32.00;;;14.70;;
7412;SDS011;3748;48.136;11.538;2022-12-18T12:36:07;24.23;;;12.20;;
7412;SDS011;3748;48.136;11.538;2022-12-18T12:38:46;26.10;;;13.67;;
7412;SDS011;3748;48.136;11.538;2022-12-18T12:41:24;21.30;;;10.17;;
7412;SDS011;3748;48.136;11.538;2022-12-18T12:44:15;32.37;;;13.13;;
7412;SDS011;3748;48.136;11.538;2022-12-18T12:46:48;23.20;;;12.37;;
7412;SDS011;3748;48.136;11.538;2022-12-18T12:49:18;24.97;;;12.47;;
7412;SDS011;3748;48.136;11.538;2022-12-18T12:51:53;21.30;;;11.87;;
7412;SDS011;3748;48.136;11.538;2022-12-18T12:54:27;29.47;;;15.50;;
7412;SDS011;3748;48.136;11.538;2022-12-18T12:56:57;27.30;;;12.80;;
7412;SDS011;3748;48.136;11.538;2022-12-18T12:59:30;25.03;;;11.47;;
7412;SDS011;3748;48.136;11.538;2022-12-18T13:02:14;30.93;;;13.00;;
7412;SDS011;3748;48.136;11.538;2022-12-18T13:04:48;27.47;;;13.83;;
7412;SDS011;3748;48.136;11.538;2022-12-18T13:07:20;28.00;;;11.17;;
7412;SDS011;3748;48.136;11.538;2022-12-18T13:10:13;16.23;;;10.23;;
7412;SDS011;3748;48.136;11.538;2022-12-18T13:12:54;27.53;;;12.13;;
7412;SDS011;3748;48.136;11.538;2022-12-18T13:15:21;21.30;;;12.27;;
7412;SDS011;3748;48.136;11.538;2022-12-18T13:18:02;26.10;;;12.47;;
7412;SDS011;3748;48.136;11.538;2022-12-18T13:20:32;32.03;;;15.20;;
7412;SDS011;3748;48.136;11.538;2022-12-18T13:23:01;30.03;;;12.47;;
7412;SDS011;3748;48.136;11.538;2022-12-18T13:25:47;27.50;;;11.87;;
7412;SDS011;3748;48.136;11.538;2022-12-18T13:28:14;25.63;;;12.70;;
7412;SDS011;3748;48.136;11.538;2022-12-18T13:30:53;21.70;;;11.57;;
7412;SDS011;3748;48.136;11.538;2022-12-18T13:36:09;33.67;;;11.70;;
7412;SDS011;3748;48.136;11.538;2022-12-18T13:38:42;25.33;;;11.50;;
7412;SDS011;3748;48.136;11.538;2022-12-18T13:41:24;23.70;;;13.90;;
7412;SDS011;3748;48.136;11.538;2022-12-18T13:43:52;29.60;;;13.57;;
7412;SDS011;3748;48.136;11.538;2022-12-18T13:46:20;24.53;;;12.13;;
7412;SDS011;3748;48.136;11.538;2022-12-18T13:48:53;34.00;;;14.67;;
7412;SDS011;3748;48.136;11.538;2022-12-18T13:51:26;30.20;;;14.90;;
7412;SDS011;3748;48.136;11.538;2022-12-18T13:53:54;22.10;;;11.87;;
7412;SDS011;3748;48.136;11.538;2022-12-18T13:56:26;28.70;;;12.13;;
7412;SDS011;3748;48.136;11.538;2022-12-18T14:01:48;26.10;;;12.10;;
7412;SDS011;3748;48.136;11.538;2022-12-18T14:04:22;23.90;;;12.60;;
7412;SDS011;3748;48.136;11.538;2022-12-18T14:06:51;23.67;;;12.00;;
7412;SDS011;3748;48.136;11.538;2022-12-18T14:09:21;23.10;;;12.70;;
7412;SDS011;3748;48.136;11.538;2022-12-18T14:11:52;30.27;;;14.27;;
7412;SDS011;3748;48.136;11.538;2022-12-18T14:14:43;22.63;;;11.43;;
7412;SDS011;3748;48.136;11.538;2022-12-18T14:17:12;29.27;;;16.17;;
7412;SDS011;3748;48.136;11.538;2022-12-18T14:19:41;34.03;;;13.40;;
7412;SDS011;3748;48.136;11.538;2022-12-18T14:22:16;27.93;;;12.30;;
7412;SDS011;3748;48.136;11.538;2022-12-18T14:24:45;27.70;;;12.33;;
7412;SDS011;3748;48.136;11.538;2022-12-18T14:27:21;30.20;;;14.07;;
7412;SDS011;3748;48.136;11.538;2022-12-18T14:29:50;27.37;;;14.67;;
7412;SDS011;3748;48.136;11.538;2022-12-18T14:32:17;21.90;;;13.73;;
7412;SDS011;3748;48.136;11.538;2022-12-18T14:34:46;28.30;;;13.27;;
7412;SDS011;3748;48.136;11.538;2022-12-18T14:37:38;30.00;;;14.33;;
7412;SDS011;3748;48.136;11.538;2022-12-18T14:40:11;26.20;;;11.50;;
7412;SDS011;3748;48.136;11.538;2022-12-18T14:42:41;21.30;;;11.80;;
7412;SDS011;3748;48.136;11.538;2022-12-18T14:45:31;27.17;;;14.13;;
7412;SDS011;3748;48.136;11.538;2022-12-18T14:48:06;27.87;;;14.43;;
7412;SDS011;3748;48.136;11.538;2022-12-18T14:50:34;29.40;;;12.77;;
7412;SDS011;3748;48.136;11.538;2022-12-18T14:53:02;25.33;;;11.03;;
7412;SDS011;3748;48.136;11.538;2022-12-18T14:55:29;28.40;;;12.43;;
7412;SDS011;3748;48.136;11.538;2022-12-18T14:57:58;27.17;;;15.03;;
7412;SDS011;3748;48.136;11.538;2022-12-18T15:00:25;29.03;;;13.47;;
7412;SDS011;3748;48.136;11.538;2022-12-18T15:02:53;29.10;;;13.53;;
7412;SDS011;3748;48.136;11.538;2022-12-18T15:05:24;29.90;;;12.80;;
7412;SDS011;3748;48.136;11.538;2022-12-18T15:07:53;34.73;;;14.90;;
7412;SDS011;3748;48.136;11.538;2022-12-18T15:10:21;42.80;;;15.37;;
7412;SDS011;3748;48.136;11.538;2022-12-18T15:13:07;36.37;;;14.97;;
7412;SDS011;3748;48.136;11.538;2022-12-18T15:15:49;37.13;;;17.83;;
7412;SDS011;3748;48.136;11.538;2022-12-18T15:18:18;34.30;;;15.50;;
7412;SDS011;3748;48.136;11.538;2022-12-18T15:20:47;35.40;;;16.13;;
7412;SDS011;3748;48.136;11.538;2022-12-18T15:23:19;35.83;;;16.97;;
7412;SDS011;3748;48.136;11.538;2022-12-18T15:25:48;38.83;;;17.63;;
7412;SDS011;3748;48.136;11.538;2022-12-18T15:28:23;35.80;;;16.60;;
7412;SDS011;3748;48.136;11.538;2022-12-18T15:30:58;40.77;;;17.40;;
7412;SDS011;3748;48.136;11.538;2022-12-18T15:33:30;36.90;;;14.73;;
7412;SDS011;3748;48.136;11.538;2022-12-18T15:35:59;47.40;;;15.77;;
7412;SDS011;3748;48.136;11.538;2022-12-18T15:38:28;43.27;;;17.50;;
7412;SDS011;3748;48.136;11.538;2022-12-18T15:41:01;36.20;;;17.57;;
7412;SDS011;3748;48.136;11.538;2022-12-18T15:43:30;34.67;;;15.87;;
7412;SDS011;3748;48.136;11.538;2022-12-18T15:46:00;31.20;;;14.77;;
7412;SDS011;3748;48.136;11.538;2022-12-18T15:48:28;40.47;;;16.60;;
7412;SDS011;3748;48.136;11.538;2022-12-18T15:51:01;29.40;;;15.07;;
7412;SDS011;3748;48.136;11.538;2022-12-18T15:53:29;47.20;;;18.87;;
7412;SDS011;3748;48.136;11.538;2022-12-18T15:55:59;41.10;;;16.03;;
7412;SDS011;3748;48.136;11.538;2022-12-18T15:58:48;36.93;;;16.50;;
7412;SDS011;3748;48.136;11.538;2022-12-18T16:01:17;30.17;;;14.90;;
7412;SDS011;3748;48.136;11.538;2022-12-18T16:03:45;26.73;;;14.60;;
7412;SDS011;3748;48.136;11.538;2022-12-18T17:18:13;36.83;;;15.80;;
7412;SDS011;3748;48.136;11.538;2022-12-18T17:20:40;41.87;;;15.27;;
7412;SDS011;3748;48.136;11.538;2022-12-18T17:23:07;42.23;;;17.03;;
7412;SDS011;3748;48.136;11.538;2022-12-18T17:25:40;39.77;;;18.23;;
7412;SDS011;3748;48.136;11.538;2022-12-18T17:28:07;29.83;;;15.37;;
7412;SDS011;3748;48.136;11.538;2022-12-18T17:30:42;34.50;;;15.93;;
7412;SDS011;3748;48.136;11.538;2022-12-18T17:36:08;40.87;;;15.87;;
7412;SDS011;3748;48.136;11.538;2022-12-18T17:38:36;34.30;;;15.07;;
7412;SDS011;3748;48.136;11.538;2022-12-18T17:41:05;35.30;;;16.37;;
7412;SDS011;3748;48.136;11.538;2022-12-18T17:43:33;37.20;;;16.60;;
7412;SDS011;3748;48.136;11.538;2022-12-18T17:46:12;32.83;;;16.20;;
7412;SDS011;3748;48.136;11.538;2022-12-18T17:48:41;36.50;;;18.13;;
7412;SDS011;3748;48.136;11.538;2022-12-18T17:51:09;37.70;;;15.97;;
7412;SDS011;3748;48.136;11.538;2022-12-18T17:53:36;42.50;;;17.90;;
7412;SDS011;3748;48.136;11.538;2022-12-18T17:56:04;38.23;;;18.13;;
7412;SDS011;3748;48.136;11.538;2022-12-18T17:58:35;35.73;;;15.37;;
7412;SDS011;3748;48.136;11.538;2022-12-18T18:01:02;39.50;;;17.47;;
7412;SDS011;3748;48.136;11.538;2022-12-18T18:03:30;30.00;;;15.90;;
7412;SDS011;3748;48.136;11.538;2022-12-18T18:06:21;46.63;;;17.07;;
7412;SDS011;3748;48.136;11.538;2022-12-18T18:08:49;29.03;;;16.63;;
7412;SDS011;3748;48.136;11.538;2022-12-18T18:11:19;43.20;;;16.77;;
7412;SDS011;3748;48.136;11.538;2022-12-18T18:14:07;35.30;;;15.23;;
7412;SDS011;3748;48.136;11.538;2022-12-18T18:16:37;41.73;;;18.13;;
7412;SDS011;3748;48.136;11.538;2022-12-18T18:19:09;38.90;;;17.00;;
7412;SDS011;3748;48.136;11.538;2022-12-18T18:22:05;42.40;;;16.77;;
7412;SDS011;3748;48.136;11.538;2022-12-18T18:24:33;33.43;;;15.57;;
7412;SDS011;3748;48.136;11.538;2022-12-18T18:27:26;38.87;;;17.50;;
7412;SDS011;3748;48.136;11.538;2022-12-18T18:30:05;44.23;;;19.77;;
7412;SDS011;3748;48.136;11.538;2022-12-18T18:32:37;46.23;;;20.77;;
7412;SDS011;3748;48.136;11.538;2022-12-18T18:35:15;43.83;;;16.97;;
7412;SDS011;3748;48.136;11.538;2022-12-18T18:37:47;43.03;;;16.57;;
7412;SDS011;3748;48.136;11.538;2022-12-18T18:40:18;31.30;;;15.17;;
7412;SDS011;3748;48.136;11.538;2022-12-18T18:42:48;40.47;;;17.40;;
7412;SDS011;3748;48.136;11.538;2022-12-18T18:45:15;33.73;;;17.57;;
7412;SDS011;3748;48.136;11.538;2022-12-18T18:47:48;37.17;;;17.10;;
7412;SDS011;3748;48.136;11.538;2022-12-18T18:50:16;40.70;;;17.70;;
7412;SDS011;3748;48.136;11.538;2022-12-18T18:52:48;38.20;;;19.40;;
7412;SDS011;3748;48.136;11.538;2022-12-18T18:55:15;43.30;;;19.97;;
7412;SDS011;3748;48.136;11.538;2022-12-18T18:57:42;36.37;;;16.40;;
7412;SDS011;3748;48.136;11.538;2022-12-18T19:02:44;39.00;;;16.03;;
7412;SDS011;3748;48.136;11.538;2022-12-18T19:05:12;43.63;;;18.47;;
7412;SDS011;3748;48.136;11.538;2022-12-18T19:07:38;36.17;;;17.60;;
7412;SDS011;3748;48.136;11.538;2022-12-18T19:10:08;38.80;;;16.50;;
7412;SDS011;3748;48.136;11.538;2022-12-18T19:12:35;34.00;;;17.73;;